sensor_id;sensor_type;location;lat;lon;timestamp;pressure;altitude;pressure_sealevel;temperature;humidity
56400;BME280;42298;53.638;9.876;2023-03-24T00:01:50;99821.06;;;14.23;70.89
56400;BME280;42298;53.638;9.876;2023-03-24T00:04:17;99832.69;;;14.29;71.06
56400;BME280;42298;53.638;9.876;2023-03-24T00:06:42;99837.50;;;14.32;71.27
56400;BME280;42298;53.638;9.876;2023-03-24T00:09:09;99834.28;;;14.30;71.32
56400;BME280;42298;53.638;9.876;2023-03-24T00:11:34;99817.44;;;14.23;71.70
56400;BME280;42298;53.638;9.876;2023-03-24T00:14:01;99837.25;;;14.37;71.47
56400;BME280;42298;53.638;9.876;2023-03-24T00:16:27;99826.88;;;14.34;71.10
56400;BME280;42298;53.638;9.876;2023-03-24T00:18:53;99810.97;;;14.31;71.67
56400;BME280;42298;53.638;9.876;2023-03-24T00:21:19;99784.41;;;14.14;71.29
56400;BME280;42298;53.638;9.876;2023-03-24T00:23:49;99795.31;;;14.23;71.93
56400;BME280;42298;53.638;9.876;2023-03-24T00:26:15;99781.34;;;14.19;72.33
56400;BME280;42298;53.638;9.876;2023-03-24T00:28:43;99804.78;;;14.37;71.72
56400;BME280;42298;53.638;9.876;2023-03-24T00:31:10;99805.16;;;14.36;72.08
56400;BME280;42298;53.638;9.876;2023-03-24T00:33:36;99783.34;;;14.19;71.44
56400;BME280;42298;53.638;9.876;2023-03-24T00:36:03;99798.38;;;14.33;71.93
56400;BME280;42298;53.638;9.876;2023-03-24T00:38:30;99779.75;;;14.18;71.86
56400;BME280;42298;53.638;9.876;2023-03-24T00:40:55;99787.13;;;14.26;72.83
56400;BME280;42298;53.638;9.876;2023-03-24T00:43:21;99778.00;;;14.26;71.57
56400;BME280;42298;53.638;9.876;2023-03-24T00:45:46;99778.97;;;14.33;72.06
56400;BME280;42298;53.638;9.876;2023-03-24T00:48:16;99761.59;;;14.21;72.21
56400;BME280;42298;53.638;9.876;2023-03-24T00:50:48;99765.84;;;14.30;72.58
56400;BME280;42298;53.638;9.876;2023-03-24T00:53:14;99775.47;;;14.21;73.38
56400;BME280;42298;53.638;9.876;2023-03-24T00:55:42;99765.44;;;14.16;73.48
56400;BME280;42298;53.638;9.876;2023-03-24T00:58:11;99760.38;;;14.18;73.64
56400;BME280;42298;53.638;9.876;2023-03-24T01:00:42;99757.59;;;14.18;73.30
56400;BME280;42298;53.638;9.876;2023-03-24T01:03:08;99757.44;;;14.11;73.70
56400;BME280;42298;53.638;9.876;2023-03-24T01:05:33;99743.03;;;14.06;73.67
56400;BME280;42298;53.638;9.876;2023-03-24T01:08:01;99746.72;;;14.10;74.08
56400;BME280;42298;53.638;9.876;2023-03-24T01:10:33;99748.66;;;14.09;74.53
56400;BME280;42298;53.638;9.876;2023-03-24T01:12:59;99720.63;;;13.80;74.91
56400;BME280;42298;53.638;9.876;2023-03-24T01:15:28;99739.72;;;14.00;75.75
56400;BME280;42298;53.638;9.876;2023-03-24T01:17:54;99714.66;;;13.93;74.71
56400;BME280;42298;53.638;9.876;2023-03-24T01:20:21;99721.44;;;13.96;74.69
56400;BME280;42298;53.638;9.876;2023-03-24T01:22:47;99722.50;;;14.07;75.06
56400;BME280;42298;53.638;9.876;2023-03-24T01:25:16;99700.16;;;14.00;75.02
56400;BME280;42298;53.638;9.876;2023-03-24T01:27:43;99675.69;;;13.86;74.97
56400;BME280;42298;53.638;9.876;2023-03-24T01:30:12;99683.38;;;13.93;74.88
56400;BME280;42298;53.638;9.876;2023-03-24T01:32:37;99699.44;;;14.03;75.24
56400;BME280;42298;53.638;9.876;2023-03-24T01:35:03;99686.78;;;14.02;74.83
56400;BME280;42298;53.638;9.876;2023-03-24T01:37:29;99670.97;;;13.87;74.97
56400;BME280;42298;53.638;9.876;2023-03-24T01:39:54;99680.38;;;13.98;75.04
56400;BME280;42298;53.638;9.876;2023-03-24T01:42:22;99681.25;;;14.02;75.12
56400;BME280;42298;53.638;9.876;2023-03-24T01:44:49;99673.66;;;13.99;74.95
56400;BME280;42298;53.638;9.876;2023-03-24T01:47:15;99664.00;;;13.93;75.66
56400;BME280;42298;53.638;9.876;2023-03-24T01:49:53;99664.91;;;13.97;75.47
56400;BME280;42298;53.638;9.876;2023-03-24T01:52:34;99651.06;;;13.97;75.43
56400;BME280;42298;53.638;9.876;2023-03-24T01:55:05;99652.13;;;14.08;74.77
56400;BME280;42298;53.638;9.876;2023-03-24T01:57:41;99632.69;;;13.89;75.31
56400;BME280;42298;53.638;9.876;2023-03-24T02:00:10;99631.69;;;13.97;75.08
56400;BME280;42298;53.638;9.876;2023-03-24T02:02:38;99609.56;;;13.81;75.42
56400;BME280;42298;53.638;9.876;2023-03-24T02:05:07;99622.59;;;13.96;74.93
56400;BME280;42298;53.638;9.876;2023-03-24T02:10:06;99628.03;;;13.93;75.96
56400;BME280;42298;53.638;9.876;2023-03-24T02:12:32;99582.88;;;13.73;75.27
56400;BME280;42298;53.638;9.876;2023-03-24T02:14:58;99617.59;;;13.86;75.89
56400;BME280;42298;53.638;9.876;2023-03-24T02:17:52;99615.63;;;13.87;75.73
56400;BME280;42298;53.638;9.876;2023-03-24T02:23:53;99593.22;;;13.92;74.74
56400;BME280;42298;53.638;9.876;2023-03-24T02:37:56;99548.75;;;13.85;75.19
56400;BME280;42298;53.638;9.876;2023-03-24T02:40:31;99557.53;;;13.71;76.03
56400;BME280;42298;53.638;9.876;2023-03-24T02:45:35;99544.66;;;13.79;75.82
56400;BME280;42298;53.638;9.876;2023-03-24T02:48:33;99549.22;;;13.87;75.73
56400;BME280;42298;53.638;9.876;2023-03-24T02:51:12;99536.00;;;13.80;75.47
56400;BME280;42298;53.638;9.876;2023-03-24T02:56:38;99535.63;;;13.82;76.13
56400;BME280;42298;53.638;9.876;2023-03-24T02:59:06;99548.16;;;13.76;76.53
56400;BME280;42298;53.638;9.876;2023-03-24T03:04:30;99529.69;;;13.80;76.74
56400;BME280;42298;53.638;9.876;2023-03-24T03:07:00;99508.19;;;13.73;76.36
56400;BME280;42298;53.638;9.876;2023-03-24T03:09:30;99520.47;;;13.91;76.64
56400;BME280;42298;53.638;9.876;2023-03-24T03:11:58;99506.53;;;13.88;76.89
56400;BME280;42298;53.638;9.876;2023-03-24T03:14:31;99493.06;;;13.86;77.13
56400;BME280;42298;53.638;9.876;2023-03-24T03:17:07;99493.00;;;13.83;77.39
56400;BME280;42298;53.638;9.876;2023-03-24T03:19:40;99483.59;;;13.87;76.97
56400;BME280;42298;53.638;9.876;2023-03-24T03:22:16;99473.69;;;13.86;76.78
56400;BME280;42298;53.638;9.876;2023-03-24T03:24:46;99472.69;;;13.94;76.99
56400;BME280;42298;53.638;9.876;2023-03-24T03:27:21;99465.31;;;13.83;77.03
56400;BME280;42298;53.638;9.876;2023-03-24T03:29:54;99455.13;;;13.87;76.97
56400;BME280;42298;53.638;9.876;2023-03-24T03:32:25;99436.56;;;13.87;77.31
56400;BME280;42298;53.638;9.876;2023-03-24T03:35:05;99439.03;;;13.92;77.03
56400;BME280;42298;53.638;9.876;2023-03-24T03:37:38;99429.63;;;13.78;77.00
56400;BME280;42298;53.638;9.876;2023-03-24T03:40:40;99445.38;;;13.93;76.54
56400;BME280;42298;53.638;9.876;2023-03-24T03:43:06;99432.53;;;13.85;76.96
56400;BME280;42298;53.638;9.876;2023-03-24T03:45:32;99439.09;;;13.96;76.94
56400;BME280;42298;53.638;9.876;2023-03-24T03:47:59;99430.66;;;13.89;77.37
56400;BME280;42298;53.638;9.876;2023-03-24T03:50:24;99400.28;;;13.73;77.41
56400;BME280;42298;53.638;9.876;2023-03-24T03:52:50;99398.38;;;13.77;77.56
56400;BME280;42298;53.638;9.876;2023-03-24T03:55:17;99378.72;;;13.63;77.46
56400;BME280;42298;53.638;9.876;2023-03-24T03:57:43;99401.50;;;13.76;77.80
56400;BME280;42298;53.638;9.876;2023-03-24T04:00:14;99411.78;;;13.94;77.84
56400;BME280;42298;53.638;9.876;2023-03-24T04:03:09;99398.53;;;14.03;77.65
56400;BME280;42298;53.638;9.876;2023-03-24T04:08:22;99400.50;;;14.03;77.79
56400;BME280;42298;53.638;9.876;2023-03-24T04:13:53;99387.66;;;14.14;77.51
56400;BME280;42298;53.638;9.876;2023-03-24T04:22:04;99377.03;;;14.16;77.92
56400;BME280;42298;53.638;9.876;2023-03-24T04:24:46;99353.22;;;14.11;77.62
56400;BME280;42298;53.638;9.876;2023-03-24T04:27:45;99359.69;;;14.19;77.06
56400;BME280;42298;53.638;9.876;2023-03-24T04:32:55;99362.47;;;14.19;77.04
56400;BME280;42298;53.638;9.876;2023-03-24T04:37:58;99362.88;;;14.21;77.72
56400;BME280;42298;53.638;9.876;2023-03-24T04:40:30;99361.72;;;14.22;77.50
56400;BME280;42298;53.638;9.876;2023-03-24T04:42:59;99355.31;;;14.18;78.19
56400;BME280;42298;53.638;9.876;2023-03-24T04:45:26;99338.31;;;14.19;78.21
56400;BME280;42298;53.638;9.876;2023-03-24T04:47:57;99335.63;;;14.23;77.71
56400;BME280;42298;53.638;9.876;2023-03-24T04:50:48;99329.25;;;14.19;78.67
56400;BME280;42298;53.638;9.876;2023-03-24T04:53:16;99320.84;;;14.15;78.62
56400;BME280;42298;53.638;9.876;2023-03-24T04:58:13;99327.84;;;14.28;78.00
56400;BME280;42298;53.638;9.876;2023-03-24T05:00:38;99336.22;;;14.32;78.69
56400;BME280;42298;53.638;9.876;2023-03-24T05:03:05;99320.47;;;14.36;78.25
56400;BME280;42298;53.638;9.876;2023-03-24T05:05:31;99309.19;;;14.25;78.52
56400;BME280;42298;53.638;9.876;2023-03-24T05:07:56;99301.41;;;14.12;78.98
56400;BME280;42298;53.638;9.876;2023-03-24T05:10:22;99316.34;;;14.26;78.79
56400;BME280;42298;53.638;9.876;2023-03-24T05:12:48;99305.09;;;14.19;78.83
56400;BME280;42298;53.638;9.876;2023-03-24T05:15:14;99315.63;;;14.29;78.57
56400;BME280;42298;53.638;9.876;2023-03-24T05:17:39;99292.50;;;14.22;78.93
56400;BME280;42298;53.638;9.876;2023-03-24T05:20:05;99300.09;;;14.25;78.68
56400;BME280;42298;53.638;9.876;2023-03-24T05:22:35;99287.28;;;14.17;78.76
56400;BME280;42298;53.638;9.876;2023-03-24T05:25:00;99286.97;;;14.22;78.67
56400;BME280;42298;53.638;9.876;2023-03-24T05:27:26;99294.94;;;14.23;79.03
56400;BME280;42298;53.638;9.876;2023-03-24T05:29:51;99277.75;;;14.14;79.98
56400;BME280;42298;53.638;9.876;2023-03-24T05:32:16;99309.75;;;14.34;79.17
56400;BME280;42298;53.638;9.876;2023-03-24T05:34:42;99287.50;;;14.27;78.85
56400;BME280;42298;53.638;9.876;2023-03-24T05:37:07;99282.44;;;14.33;79.13
56400;BME280;42298;53.638;9.876;2023-03-24T05:39:36;99288.72;;;14.30;78.77
56400;BME280;42298;53.638;9.876;2023-03-24T05:42:01;99292.03;;;14.39;78.88
56400;BME280;42298;53.638;9.876;2023-03-24T05:44:26;99303.28;;;14.49;78.72
56400;BME280;42298;53.638;9.876;2023-03-24T05:46:52;99302.47;;;14.49;78.80
56400;BME280;42298;53.638;9.876;2023-03-24T05:49:17;99285.81;;;14.45;79.06
56400;BME280;42298;53.638;9.876;2023-03-24T05:51:42;99290.56;;;14.45;78.85
56400;BME280;42298;53.638;9.876;2023-03-24T05:54:07;99279.38;;;14.38;79.01
56400;BME280;42298;53.638;9.876;2023-03-24T05:56:33;99289.81;;;14.48;78.65
56400;BME280;42298;53.638;9.876;2023-03-24T05:58:58;99283.16;;;14.52;78.78
56400;BME280;42298;53.638;9.876;2023-03-24T06:01:24;99267.47;;;14.37;79.11
56400;BME280;42298;53.638;9.876;2023-03-24T06:03:50;99263.41;;;14.31;79.03
56400;BME280;42298;53.638;9.876;2023-03-24T06:06:15;99266.72;;;14.40;78.96
56400;BME280;42298;53.638;9.876;2023-03-24T06:08:43;99278.22;;;14.65;79.06
56400;BME280;42298;53.638;9.876;2023-03-24T06:11:09;99269.09;;;14.64;79.00
56400;BME280;42298;53.638;9.876;2023-03-24T06:13:36;99263.84;;;14.56;79.34
56400;BME280;42298;53.638;9.876;2023-03-24T06:16:01;99234.88;;;14.53;78.85
56400;BME280;42298;53.638;9.876;2023-03-24T06:18:27;99271.88;;;14.64;78.94
56400;BME280;42298;53.638;9.876;2023-03-24T06:20:55;99244.81;;;14.54;79.65
56400;BME280;42298;53.638;9.876;2023-03-24T06:23:25;99268.06;;;14.72;78.96
56400;BME280;42298;53.638;9.876;2023-03-24T06:25:56;99251.28;;;14.65;79.07
56400;BME280;42298;53.638;9.876;2023-03-24T06:28:28;99272.88;;;14.79;79.19
56400;BME280;42298;53.638;9.876;2023-03-24T06:30:55;99278.41;;;14.75;79.00
56400;BME280;42298;53.638;9.876;2023-03-24T06:33:23;99253.31;;;14.68;78.93
56400;BME280;42298;53.638;9.876;2023-03-24T06:35:50;99268.47;;;14.74;79.21
56400;BME280;42298;53.638;9.876;2023-03-24T06:38:17;99282.06;;;14.83;78.88
56400;BME280;42298;53.638;9.876;2023-03-24T06:40:43;99288.34;;;14.80;79.18
56400;BME280;42298;53.638;9.876;2023-03-24T06:43:08;99265.69;;;14.74;78.70
56400;BME280;42298;53.638;9.876;2023-03-24T06:45:34;99282.53;;;14.88;78.72
56400;BME280;42298;53.638;9.876;2023-03-24T06:48:00;99292.03;;;14.87;78.68
56400;BME280;42298;53.638;9.876;2023-03-24T06:50:26;99279.78;;;14.88;78.31
56400;BME280;42298;53.638;9.876;2023-03-24T06:52:57;99288.56;;;14.94;78.30
56400;BME280;42298;53.638;9.876;2023-03-24T06:55:22;99302.47;;;14.97;78.10
56400;BME280;42298;53.638;9.876;2023-03-24T06:57:47;99299.53;;;14.87;78.57
56400;BME280;42298;53.638;9.876;2023-03-24T07:00:13;99321.66;;;15.09;78.49
56400;BME280;42298;53.638;9.876;2023-03-24T07:02:38;99316.44;;;14.78;78.06
56400;BME280;42298;53.638;9.876;2023-03-24T07:05:05;99344.25;;;14.85;76.87
56400;BME280;42298;53.638;9.876;2023-03-24T07:07:32;99371.41;;;14.99;75.90
56400;BME280;42298;53.638;9.876;2023-03-24T07:09:58;99354.78;;;14.99;76.05
56400;BME280;42298;53.638;9.876;2023-03-24T07:12:25;99367.59;;;15.07;75.58
56400;BME280;42298;53.638;9.876;2023-03-24T07:14:50;99375.63;;;15.15;75.39
56400;BME280;42298;53.638;9.876;2023-03-24T07:17:17;99380.97;;;15.27;75.80
56400;BME280;42298;53.638;9.876;2023-03-24T07:19:42;99398.72;;;15.23;74.53
56400;BME280;42298;53.638;9.876;2023-03-24T07:22:09;99385.22;;;15.21;74.16
56400;BME280;42298;53.638;9.876;2023-03-24T07:24:35;99398.78;;;15.26;73.38
56400;BME280;42298;53.638;9.876;2023-03-24T07:27:00;99414.19;;;15.24;73.21
56400;BME280;42298;53.638;9.876;2023-03-24T07:29:26;99385.22;;;15.44;71.54
56400;BME280;42298;53.638;9.876;2023-03-24T07:31:51;99404.41;;;15.56;71.07
56400;BME280;42298;53.638;9.876;2023-03-24T07:34:18;99418.28;;;15.56;69.84
56400;BME280;42298;53.638;9.876;2023-03-24T07:36:45;99417.63;;;15.66;70.30
56400;BME280;42298;53.638;9.876;2023-03-24T07:39:11;99407.66;;;15.62;69.89
56400;BME280;42298;53.638;9.876;2023-03-24T07:41:37;99408.69;;;15.80;69.65
56400;BME280;42298;53.638;9.876;2023-03-24T07:44:03;99436.03;;;16.07;67.96
56400;BME280;42298;53.638;9.876;2023-03-24T07:46:28;99445.94;;;16.08;67.45
56400;BME280;42298;53.638;9.876;2023-03-24T07:48:54;99412.50;;;15.68;64.43
56400;BME280;42298;53.638;9.876;2023-03-24T07:51:19;99428.94;;;15.80;64.76
56400;BME280;42298;53.638;9.876;2023-03-24T07:53:45;99460.69;;;16.12;63.63
56400;BME280;42298;53.638;9.876;2023-03-24T07:56:15;99455.47;;;16.07;62.95
56400;BME280;42298;53.638;9.876;2023-03-24T07:58:40;99471.28;;;16.36;62.63
56400;BME280;42298;53.638;9.876;2023-03-24T08:01:07;99466.13;;;16.68;62.83
56400;BME280;42298;53.638;9.876;2023-03-24T08:03:35;99458.59;;;16.68;60.90
56400;BME280;42298;53.638;9.876;2023-03-24T08:06:02;99477.69;;;16.70;60.82
56400;BME280;42298;53.638;9.876;2023-03-24T08:08:28;99488.06;;;16.76;61.52
56400;BME280;42298;53.638;9.876;2023-03-24T08:10:54;99477.84;;;16.87;61.99
56400;BME280;42298;53.638;9.876;2023-03-24T08:13:19;99461.03;;;16.73;60.90
56400;BME280;42298;53.638;9.876;2023-03-24T08:15:44;99495.53;;;17.05;61.71
56400;BME280;42298;53.638;9.876;2023-03-24T08:18:10;99493.94;;;17.08;60.39
56400;BME280;42298;53.638;9.876;2023-03-24T08:20:35;99497.09;;;17.06;60.44
56400;BME280;42298;53.638;9.876;2023-03-24T08:23:01;99505.41;;;16.99;59.90
56400;BME280;42298;53.638;9.876;2023-03-24T08:25:29;99510.41;;;16.83;59.40
56400;BME280;42298;53.638;9.876;2023-03-24T08:27:55;99542.03;;;17.08;59.71
56400;BME280;42298;53.638;9.876;2023-03-24T08:30:22;99531.44;;;17.21;59.57
56400;BME280;42298;53.638;9.876;2023-03-24T08:32:53;99539.84;;;17.28;59.73
56400;BME280;42298;53.638;9.876;2023-03-24T08:35:22;99523.44;;;17.16;59.35
56400;BME280;42298;53.638;9.876;2023-03-24T08:37:48;99558.94;;;17.30;59.12
56400;BME280;42298;53.638;9.876;2023-03-24T08:40:16;99544.31;;;17.36;58.32
56400;BME280;42298;53.638;9.876;2023-03-24T08:42:46;99554.69;;;17.43;57.18
56400;BME280;42298;53.638;9.876;2023-03-24T08:45:13;99548.00;;;17.44;56.83
56400;BME280;42298;53.638;9.876;2023-03-24T08:47:39;99551.03;;;17.32;56.34
56400;BME280;42298;53.638;9.876;2023-03-24T08:50:05;99562.91;;;17.69;57.88
56400;BME280;42298;53.638;9.876;2023-03-24T08:52:32;99578.59;;;17.91;56.48
56400;BME280;42298;53.638;9.876;2023-03-24T08:54:58;99583.22;;;17.73;55.52
56400;BME280;42298;53.638;9.876;2023-03-24T08:57:23;99575.31;;;17.38;55.94
56400;BME280;42298;53.638;9.876;2023-03-24T08:59:49;99583.13;;;17.22;56.21
56400;BME280;42298;53.638;9.876;2023-03-24T09:02:15;99562.31;;;17.09;58.59
56400;BME280;42298;53.638;9.876;2023-03-24T09:04:40;99553.44;;;16.96;56.32
56400;BME280;42298;53.638;9.876;2023-03-24T09:07:10;99594.22;;;17.55;56.11
56400;BME280;42298;53.638;9.876;2023-03-24T09:09:36;99588.44;;;17.78;55.09
56400;BME280;42298;53.638;9.876;2023-03-24T09:12:01;99592.81;;;17.79;54.38
56400;BME280;42298;53.638;9.876;2023-03-24T09:14:27;99594.66;;;17.61;53.94
56400;BME280;42298;53.638;9.876;2023-03-24T09:16:52;99619.28;;;17.55;53.44
56400;BME280;42298;53.638;9.876;2023-03-24T09:19:17;99599.59;;;17.38;54.23
56400;BME280;42298;53.638;9.876;2023-03-24T09:21:45;99615.41;;;17.30;54.20
56400;BME280;42298;53.638;9.876;2023-03-24T09:24:11;99629.03;;;17.05;54.56
56400;BME280;42298;53.638;9.876;2023-03-24T09:26:36;99610.22;;;16.62;54.86
56400;BME280;42298;53.638;9.876;2023-03-24T09:29:02;99615.78;;;16.62;55.76
56400;BME280;42298;53.638;9.876;2023-03-24T09:31:28;99626.94;;;16.66;55.76
56400;BME280;42298;53.638;9.876;2023-03-24T09:33:53;99606.75;;;16.43;56.20
56400;BME280;42298;53.638;9.876;2023-03-24T09:36:18;99645.47;;;16.55;56.38
56400;BME280;42298;53.638;9.876;2023-03-24T09:38:44;99624.38;;;16.50;56.74
56400;BME280;42298;53.638;9.876;2023-03-24T09:41:16;99654.25;;;16.86;56.90
56400;BME280;42298;53.638;9.876;2023-03-24T09:43:55;99649.81;;;17.15;56.14
56400;BME280;42298;53.638;9.876;2023-03-24T09:46:31;99641.88;;;16.84;54.65
56400;BME280;42298;53.638;9.876;2023-03-24T09:48:58;99647.53;;;16.61;55.18
56400;BME280;42298;53.638;9.876;2023-03-24T09:51:34;99653.97;;;16.65;55.29
56400;BME280;42298;53.638;9.876;2023-03-24T09:56:35;99665.63;;;16.48;56.08
56400;BME280;42298;53.638;9.876;2023-03-24T10:01:33;99662.91;;;16.29;56.19
56400;BME280;42298;53.638;9.876;2023-03-24T10:03:59;99663.66;;;16.26;56.75
56400;BME280;42298;53.638;9.876;2023-03-24T10:06:28;99666.91;;;16.32;57.09
56400;BME280;42298;53.638;9.876;2023-03-24T10:09:16;99677.56;;;16.52;56.31
56400;BME280;42298;53.638;9.876;2023-03-24T10:12:00;99681.91;;;16.50;55.96
56400;BME280;42298;53.638;9.876;2023-03-24T10:14:54;99682.59;;;16.69;56.33
56400;BME280;42298;53.638;9.876;2023-03-24T10:23:03;99680.53;;;16.92;54.54
56400;BME280;42298;53.638;9.876;2023-03-24T10:28:07;99670.25;;;16.96;55.52
56400;BME280;42298;53.638;9.876;2023-03-24T10:30:40;99684.63;;;17.35;55.15
56400;BME280;42298;53.638;9.876;2023-03-24T10:33:09;99689.03;;;17.36;54.46
56400;BME280;42298;53.638;9.876;2023-03-24T10:35:38;99656.66;;;17.21;54.12
56400;BME280;42298;53.638;9.876;2023-03-24T10:38:19;99684.19;;;17.30;53.19
56400;BME280;42298;53.638;9.876;2023-03-24T10:40:46;99684.88;;;17.23;52.91
56400;BME280;42298;53.638;9.876;2023-03-24T10:43:12;99670.13;;;17.19;54.37
56400;BME280;42298;53.638;9.876;2023-03-24T10:45:41;99673.09;;;17.33;53.68
56400;BME280;42298;53.638;9.876;2023-03-24T10:48:12;99675.66;;;17.49;53.72
56400;BME280;42298;53.638;9.876;2023-03-24T10:50:42;99648.25;;;17.17;51.97
56400;BME280;42298;53.638;9.876;2023-03-24T10:53:19;99686.69;;;17.42;52.58
56400;BME280;42298;53.638;9.876;2023-03-24T10:55:45;99680.31;;;17.38;53.29
56400;BME280;42298;53.638;9.876;2023-03-24T11:00:58;99709.94;;;17.56;53.81
56400;BME280;42298;53.638;9.876;2023-03-24T11:03:33;99692.09;;;17.61;53.65
56400;BME280;42298;53.638;9.876;2023-03-24T11:06:02;99713.66;;;17.67;51.71
56400;BME280;42298;53.638;9.876;2023-03-24T11:08:38;99722.69;;;17.57;52.00
56400;BME280;42298;53.638;9.876;2023-03-24T11:13:59;99713.94;;;17.55;51.37
56400;BME280;42298;53.638;9.876;2023-03-24T11:16:35;99717.63;;;17.33;52.38
56400;BME280;42298;53.638;9.876;2023-03-24T11:19:05;99734.69;;;17.32;52.33
56400;BME280;42298;53.638;9.876;2023-03-24T11:21:34;99725.31;;;17.13;52.01
56400;BME280;42298;53.638;9.876;2023-03-24T11:24:01;99723.69;;;17.12;52.52
56400;BME280;42298;53.638;9.876;2023-03-24T11:26:31;99721.03;;;17.20;53.00
56400;BME280;42298;53.638;9.876;2023-03-24T11:29:01;99731.19;;;17.38;52.32
56400;BME280;42298;53.638;9.876;2023-03-24T11:31:28;99743.88;;;17.36;50.89
56400;BME280;42298;53.638;9.876;2023-03-24T11:34:05;99718.75;;;17.29;52.13
56400;BME280;42298;53.638;9.876;2023-03-24T11:36:38;99734.28;;;17.63;51.28
56400;BME280;42298;53.638;9.876;2023-03-24T11:39:16;99733.34;;;17.85;49.87
56400;BME280;42298;53.638;9.876;2023-03-24T11:41:50;99706.84;;;18.01;49.35
56400;BME280;42298;53.638;9.876;2023-03-24T11:44:24;99731.28;;;18.18;49.17
56400;BME280;42298;53.638;9.876;2023-03-24T11:46:56;99724.91;;;18.18;48.65
56400;BME280;42298;53.638;9.876;2023-03-24T11:49:26;99724.47;;;18.12;48.28
56400;BME280;42298;53.638;9.876;2023-03-24T11:51:53;99700.88;;;18.03;48.70
56400;BME280;42298;53.638;9.876;2023-03-24T11:54:22;99711.81;;;18.25;47.91
56400;BME280;42298;53.638;9.876;2023-03-24T11:56:55;99701.50;;;18.29;48.58
56400;BME280;42298;53.638;9.876;2023-03-24T11:59:31;99720.78;;;18.45;46.27
56400;BME280;42298;53.638;9.876;2023-03-24T12:02:11;99723.56;;;18.45;47.05
56400;BME280;42298;53.638;9.876;2023-03-24T12:04:49;99715.63;;;18.50;46.56
56400;BME280;42298;53.638;9.876;2023-03-24T12:10:13;99734.66;;;18.38;46.54
56400;BME280;42298;53.638;9.876;2023-03-24T12:13:04;99738.53;;;18.30;47.56
56400;BME280;42298;53.638;9.876;2023-03-24T12:15:52;99741.50;;;18.07;47.00
56400;BME280;42298;53.638;9.876;2023-03-24T12:18:33;99739.53;;;18.08;47.79
56400;BME280;42298;53.638;9.876;2023-03-24T12:23:56;99730.03;;;18.59;47.06
56400;BME280;42298;53.638;9.876;2023-03-24T12:26:26;99744.16;;;18.87;48.09
56400;BME280;42298;53.638;9.876;2023-03-24T12:31:58;99739.81;;;18.93;44.96
56400;BME280;42298;53.638;9.876;2023-03-24T12:37:31;99737.53;;;19.13;43.88
56400;BME280;42298;53.638;9.876;2023-03-24T12:40:04;99745.25;;;19.37;44.09
56400;BME280;42298;53.638;9.876;2023-03-24T12:42:39;99741.78;;;19.72;44.32
56400;BME280;42298;53.638;9.876;2023-03-24T12:45:20;99747.41;;;19.82;43.06
56400;BME280;42298;53.638;9.876;2023-03-24T12:47:59;99757.41;;;19.87;42.27
56400;BME280;42298;53.638;9.876;2023-03-24T12:51:01;99760.25;;;20.08;43.75
56400;BME280;42298;53.638;9.876;2023-03-24T12:53:32;99753.91;;;20.14;44.48
56400;BME280;42298;53.638;9.876;2023-03-24T12:59:17;99749.44;;;20.03;44.58
56400;BME280;42298;53.638;9.876;2023-03-24T13:01:51;99734.25;;;19.83;43.65
56400;BME280;42298;53.638;9.876;2023-03-24T13:04:18;99755.03;;;19.99;44.75
56400;BME280;42298;53.638;9.876;2023-03-24T13:14:53;99748.91;;;19.52;42.52
56400;BME280;42298;53.638;9.876;2023-03-24T13:17:29;99752.59;;;18.98;42.48
56400;BME280;42298;53.638;9.876;2023-03-24T13:19:57;99741.84;;;18.39;43.30
56400;BME280;42298;53.638;9.876;2023-03-24T13:22:26;99743.34;;;18.33;42.68
56400;BME280;42298;53.638;9.876;2023-03-24T13:24:52;99746.63;;;18.42;43.24
56400;BME280;42298;53.638;9.876;2023-03-24T13:27:31;99747.06;;;18.44;41.72
56400;BME280;42298;53.638;9.876;2023-03-24T13:32:52;99757.63;;;18.28;42.61
56400;BME280;42298;53.638;9.876;2023-03-24T13:38:26;99753.63;;;18.69;43.51
56400;BME280;42298;53.638;9.876;2023-03-24T13:40:56;99750.72;;;18.55;41.86
56400;BME280;42298;53.638;9.876;2023-03-24T13:43:28;99752.31;;;18.56;42.38
56400;BME280;42298;53.638;9.876;2023-03-24T13:46:05;99744.28;;;18.47;42.48
56400;BME280;42298;53.638;9.876;2023-03-24T13:48:37;99729.75;;;18.28;43.02
56400;BME280;42298;53.638;9.876;2023-03-24T13:54:20;99752.25;;;18.49;42.31
56400;BME280;42298;53.638;9.876;2023-03-24T13:57:05;99742.00;;;18.63;41.00
56400;BME280;42298;53.638;9.876;2023-03-24T13:59:57;99744.00;;;18.63;40.48
56400;BME280;42298;53.638;9.876;2023-03-24T14:02:44;99728.78;;;18.53;39.43
56400;BME280;42298;53.638;9.876;2023-03-24T14:08:10;99737.75;;;18.33;39.37
56400;BME280;42298;53.638;9.876;2023-03-24T14:10:48;99740.16;;;18.34;40.00
56400;BME280;42298;53.638;9.876;2023-03-24T14:15:56;99741.03;;;18.38;39.93
56400;BME280;42298;53.638;9.876;2023-03-24T14:25:54;99749.59;;;18.19;40.14
56400;BME280;42298;53.638;9.876;2023-03-24T14:28:44;99749.25;;;18.24;41.29
56400;BME280;42298;53.638;9.876;2023-03-24T14:31:09;99753.47;;;18.08;39.90
56400;BME280;42298;53.638;9.876;2023-03-24T14:36:19;99731.03;;;17.94;40.10
56400;BME280;42298;53.638;9.876;2023-03-24T14:38:49;99741.41;;;17.97;40.42
56400;BME280;42298;53.638;9.876;2023-03-24T14:41:26;99755.56;;;18.18;40.60
56400;BME280;42298;53.638;9.876;2023-03-24T14:43:58;99753.38;;;18.01;40.87
56400;BME280;42298;53.638;9.876;2023-03-24T14:46:42;99751.44;;;18.05;41.35
56400;BME280;42298;53.638;9.876;2023-03-24T14:51:56;99761.34;;;18.02;39.34
56400;BME280;42298;53.638;9.876;2023-03-24T14:54:33;99737.81;;;17.93;40.31
56400;BME280;42298;53.638;9.876;2023-03-24T14:56:59;99754.84;;;17.88;38.94
56400;BME280;42298;53.638;9.876;2023-03-24T15:02:14;99752.88;;;17.88;40.04
56400;BME280;42298;53.638;9.876;2023-03-24T15:05:11;99726.84;;;17.74;40.40
56400;BME280;42298;53.638;9.876;2023-03-24T15:07:27;99723.88;;;17.56;40.25
56400;BME280;42298;53.638;9.876;2023-03-24T15:09:53;99732.28;;;17.60;39.97
56400;BME280;42298;53.638;9.876;2023-03-24T15:12:19;99754.28;;;17.72;40.05